createdAt,value
2023-01-23T00:01:20.232Z,0.13
2023-01-23T00:03:22.166Z,0.11
2023-01-23T00:05:28.076Z,0.12
2023-01-23T00:07:30.001Z,0.13
2023-01-23T00:09:34.023Z,0.14
2023-01-23T00:11:38.102Z,0.11
2023-01-23T00:13:40.310Z,0.12
2023-01-23T00:15:44.319Z,0.14
2023-01-23T00:17:46.223Z,0.14
2023-01-23T00:19:48.108Z,0.13
2023-01-23T00:21:49.997Z,0.11
2023-01-23T00:23:57.251Z,0.11
2023-01-23T00:26:07.605Z,0.12
2023-01-23T00:28:09.485Z,0.12
2023-01-23T00:30:19.903Z,0.11
2023-01-23T00:32:22.066Z,0.13
2023-01-23T00:34:29.887Z,0.13
2023-01-23T00:36:40.185Z,0.13
2023-01-23T00:38:43.312Z,0.09
2023-01-23T00:40:47.137Z,0.11
2023-01-23T00:42:49.308Z,0.11
2023-01-23T00:44:53.180Z,0.10
2023-01-23T00:46:58.789Z,0.11
2023-01-23T00:49:07.283Z,0.09
2023-01-23T00:51:22.681Z,0.13
2023-01-23T00:53:31.778Z,0.11
2023-01-23T00:55:50.099Z,0.14
2023-01-23T00:57:52.019Z,0.12
2023-01-23T00:59:53.929Z,0.12
2023-01-23T01:02:03.227Z,0.11
2023-01-23T01:04:05.329Z,0.09
2023-01-23T01:06:11.172Z,0.10
2023-01-23T01:08:13.267Z,0.08
2023-01-23T01:10:17.497Z,0.09
2023-01-23T01:12:19.596Z,0.06
2023-01-23T01:14:30.586Z,0.08
2023-01-23T01:16:34.558Z,0.07
2023-01-23T01:18:38.340Z,0.05
2023-01-23T01:20:42.517Z,0.05
2023-01-23T01:22:44.471Z,0.04
2023-01-23T01:24:46.604Z,0.05
2023-01-23T01:26:50.433Z,0.05
2023-01-23T01:28:56.489Z,0.02
2023-01-23T01:31:07.474Z,0.01
2023-01-23T01:33:09.540Z,0.03
2023-01-23T01:35:12.190Z,0.02
2023-01-23T01:37:15.034Z,0.01
2023-01-23T01:39:20.951Z,0.01
2023-01-23T01:41:26.052Z,0.03
2023-01-23T01:43:28.637Z,-0.01
2023-01-23T01:46:07.803Z,0.02
2023-01-23T01:48:13.179Z,-0.02
2023-01-23T01:50:15.245Z,0.00
2023-01-23T01:52:21.281Z,-0.02
2023-01-23T01:54:43.851Z,-0.01
2023-01-23T01:56:52.065Z,-0.05
2023-01-23T01:59:20.280Z,-0.04
2023-01-23T02:01:24.461Z,-0.03
2023-01-23T02:03:30.884Z,-0.04
2023-01-23T02:05:47.735Z,-0.04
2023-01-23T02:08:11.144Z,-0.06
2023-01-23T02:10:14.485Z,-0.04
2023-01-23T02:12:16.400Z,-0.03
2023-01-23T02:14:26.268Z,-0.05
2023-01-23T02:16:34.108Z,-0.03
2023-01-23T02:18:39.180Z,-0.04
2023-01-23T02:20:42.289Z,-0.04
2023-01-23T02:23:18.293Z,-0.03
2023-01-23T02:26:11.673Z,-0.04
2023-01-23T02:28:17.179Z,-0.04
2023-01-23T02:30:21.547Z,-0.07
2023-01-23T02:32:29.627Z,-0.04
2023-01-23T02:34:32.455Z,-0.06
2023-01-23T02:36:35.564Z,-0.05
2023-01-23T02:38:54.825Z,-0.04
2023-01-23T02:41:21.024Z,-0.04
2023-01-23T02:43:28.404Z,-0.05
2023-01-23T02:45:41.159Z,-0.05
2023-01-23T02:47:43.020Z,-0.07
2023-01-23T02:49:45.201Z,-0.07
2023-01-23T02:51:49.659Z,-0.04
2023-01-23T02:53:51.663Z,-0.07
2023-01-23T02:55:54.065Z,-0.07
2023-01-23T02:58:18.342Z,-0.05
2023-01-23T03:00:20.918Z,-0.05
2023-01-23T03:02:28.260Z,-0.08
2023-01-23T03:04:39.919Z,-0.08
2023-01-23T03:06:46.008Z,-0.07
2023-01-23T03:08:47.943Z,-0.08
2023-01-23T03:10:53.895Z,-0.07
2023-01-23T03:13:07.439Z,-0.11
2023-01-23T03:15:11.828Z,-0.07
2023-01-23T03:17:15.040Z,-0.10
2023-01-23T03:19:18.788Z,-0.06
2023-01-23T03:21:32.900Z,-0.10
2023-01-23T03:23:44.824Z,-0.10
2023-01-23T03:25:49.320Z,-0.07
2023-01-23T03:27:54.295Z,-0.08
2023-01-23T03:30:16.278Z,-0.06
2023-01-23T03:32:18.069Z,-0.06
2023-01-23T03:34:22.425Z,-0.06
2023-01-23T03:36:37.556Z,-0.04
2023-01-23T03:39:05.018Z,-0.08
2023-01-23T03:41:27.091Z,-0.07
2023-01-23T03:43:33.363Z,-0.09
2023-01-23T03:45:45.437Z,-0.08
2023-01-23T03:47:48.399Z,-0.09
2023-01-23T03:49:53.119Z,-0.10
2023-01-23T03:51:57.044Z,-0.09
2023-01-23T03:54:11.705Z,-0.08
2023-01-23T03:56:16.861Z,-0.07
2023-01-23T03:58:25.564Z,-0.05
2023-01-23T04:00:30.571Z,-0.08
2023-01-23T04:02:34.480Z,-0.06
2023-01-23T04:04:37.383Z,-0.05
2023-01-23T04:06:49.418Z,-0.06
2023-01-23T04:08:52.385Z,-0.07
2023-01-23T04:11:09.217Z,-0.07
2023-01-23T04:13:15.257Z,-0.09
2023-01-23T04:15:17.328Z,-0.09
2023-01-23T04:17:21.250Z,-0.09
2023-01-23T04:19:23.171Z,-0.08
2023-01-23T04:21:29.130Z,-0.06
2023-01-23T04:23:33.210Z,-0.07
2023-01-23T04:25:42.908Z,-0.04
2023-01-23T04:27:58.148Z,-0.06
2023-01-23T04:30:01.015Z,-0.05
2023-01-23T04:32:03.177Z,-0.05
2023-01-23T04:34:16.188Z,-0.05
2023-01-23T04:36:19.077Z,-0.02
2023-01-23T04:38:25.934Z,-0.05
2023-01-23T04:40:27.961Z,-0.04
2023-01-23T04:42:33.807Z,-0.04
2023-01-23T04:44:36.702Z,-0.04
2023-01-23T04:46:50.063Z,-0.04
2023-01-23T04:48:56.093Z,-0.03
2023-01-23T04:50:57.958Z,-0.02
2023-01-23T04:52:59.983Z,-0.02
2023-01-23T04:55:02.065Z,-0.01
2023-01-23T04:57:04.023Z,-0.04
2023-01-23T04:59:06.745Z,-0.03
2023-01-23T05:01:10.715Z,-0.01
2023-01-23T05:03:17.448Z,-0.02
2023-01-23T05:05:21.379Z,-0.02
2023-01-23T05:07:33.448Z,-0.04
2023-01-23T05:09:35.319Z,-0.02
2023-01-23T05:11:37.379Z,-0.01
2023-01-23T05:13:40.339Z,0.01
2023-01-23T05:15:43.443Z,0.01
2023-01-23T05:17:45.327Z,-0.01
2023-01-23T05:19:47.247Z,-0.01
2023-01-23T05:21:50.348Z,-0.02
2023-01-23T05:23:53.357Z,-0.03
2023-01-23T05:25:59.262Z,-0.03
2023-01-23T05:28:03.135Z,-0.03
2023-01-23T05:30:10.751Z,-0.04
2023-01-23T05:32:22.882Z,-0.03
2023-01-23T05:34:25.860Z,-0.03
2023-01-23T05:36:27.716Z,-0.04
2023-01-23T05:38:29.737Z,-0.02
2023-01-23T05:40:33.814Z,-0.01
2023-01-23T05:42:41.629Z,-0.02
2023-01-23T05:44:43.539Z,0.01
2023-01-23T05:46:45.469Z,-0.03
2023-01-23T05:48:54.704Z,0.01
2023-01-23T05:50:58.610Z,-0.02
2023-01-23T05:53:12.788Z,0.02
2023-01-23T05:55:26.065Z,-0.01
2023-01-23T05:57:35.416Z,0.01
2023-01-23T05:59:37.268Z,0.01
2023-01-23T06:01:45.380Z,0.02
2023-01-23T06:03:48.176Z,0.01
2023-01-23T06:06:02.367Z,-0.02
2023-01-23T06:08:20.444Z,0.01
2023-01-23T06:10:23.398Z,0.02
2023-01-23T06:12:31.538Z,0.05
2023-01-23T06:14:33.481Z,0.03
2023-01-23T06:16:35.604Z,0.02
2023-01-23T06:18:43.815Z,0.01
2023-01-23T06:21:19.641Z,0.01
2023-01-23T06:23:22.550Z,0.01
2023-01-23T06:25:24.510Z,0.06
2023-01-23T06:27:30.490Z,0.06
2023-01-23T06:29:32.637Z,0.08
2023-01-23T06:31:35.848Z,0.06
2023-01-23T06:33:43.670Z,0.08
2023-01-23T06:36:06.164Z,0.06
2023-01-23T06:38:13.153Z,0.06
2023-01-23T06:40:15.656Z,0.08
2023-01-23T06:42:17.717Z,0.10
2023-01-23T06:44:27.633Z,0.10
2023-01-23T06:46:36.203Z,0.10
2023-01-23T06:48:39.289Z,0.12
2023-01-23T06:50:42.696Z,0.12
2023-01-23T06:52:44.593Z,0.12
2023-01-23T06:54:52.378Z,0.13
2023-01-23T06:56:55.533Z,0.14
2023-01-23T06:59:03.609Z,0.13
2023-01-23T07:01:10.671Z,0.14
2023-01-23T07:03:15.322Z,0.13
2023-01-23T07:05:18.352Z,0.13
2023-01-23T07:07:20.410Z,0.12
2023-01-23T07:09:24.401Z,0.14
2023-01-23T07:11:26.356Z,0.15
2023-01-23T07:13:29.712Z,0.15
2023-01-23T07:15:33.808Z,0.17
2023-01-23T07:17:36.771Z,0.17
2023-01-23T07:19:38.800Z,0.18
2023-01-23T07:21:49.486Z,0.18
2023-01-23T07:23:53.601Z,0.17
2023-01-23T07:26:00.613Z,0.17
2023-01-23T07:28:04.100Z,0.16
2023-01-23T07:30:06.552Z,0.15
2023-01-23T07:32:18.612Z,0.17
2023-01-23T07:34:26.712Z,0.16
2023-01-23T07:36:29.980Z,0.17
2023-01-23T07:38:35.292Z,0.17
2023-01-23T07:40:39.254Z,0.18
2023-01-23T07:42:43.430Z,0.18
2023-01-23T07:44:45.393Z,0.22
2023-01-23T07:46:53.553Z,0.21
2023-01-23T07:49:02.287Z,0.18
2023-01-23T07:51:05.954Z,0.21
2023-01-23T07:53:08.066Z,0.23
2023-01-23T07:55:16.928Z,0.21
2023-01-23T07:57:22.316Z,0.23
2023-01-23T07:59:24.309Z,0.23
2023-01-23T08:01:26.675Z,0.22
2023-01-23T08:03:29.301Z,0.24
2023-01-23T08:05:33.253Z,0.30
2023-01-23T08:07:36.268Z,0.37
2023-01-23T08:09:40.615Z,0.43
2023-01-23T08:11:42.647Z,0.49
2023-01-23T08:13:48.678Z,0.53
2023-01-23T08:15:53.569Z,0.53
2023-01-23T08:17:55.583Z,0.55
2023-01-23T08:19:57.571Z,0.54
2023-01-23T08:21:59.552Z,0.59
2023-01-23T08:24:05.078Z,0.60
2023-01-23T08:26:11.879Z,0.57
2023-01-23T08:28:14.796Z,0.58
2023-01-23T08:30:17.202Z,0.60
2023-01-23T08:32:19.351Z,0.65
2023-01-23T08:34:24.210Z,0.66
2023-01-23T08:36:26.210Z,0.63
2023-01-23T08:38:29.456Z,0.67
2023-01-23T08:40:31.830Z,0.67
2023-01-23T08:42:33.794Z,0.72
2023-01-23T08:44:35.797Z,0.71
2023-01-23T08:46:45.369Z,0.72
2023-01-23T08:48:48.335Z,0.71
2023-01-23T08:51:02.587Z,0.70
2023-01-23T08:53:05.112Z,0.72
2023-01-23T08:55:07.549Z,0.76
2023-01-23T08:57:09.531Z,0.75
2023-01-23T08:59:12.128Z,0.76
2023-01-23T09:01:25.536Z,0.77
2023-01-23T09:03:28.735Z,0.75
2023-01-23T09:05:32.580Z,0.79
2023-01-23T09:07:37.087Z,0.79
2023-01-23T09:09:39.525Z,0.81
2023-01-23T09:11:41.834Z,0.77
2023-01-23T09:13:43.908Z,0.76
2023-01-23T09:15:50.934Z,0.75
2023-01-23T09:17:53.840Z,0.79
2023-01-23T09:19:58.340Z,0.80
2023-01-23T09:22:00.528Z,0.66
2023-01-23T09:24:02.566Z,0.66
2023-01-23T09:26:06.337Z,0.59
2023-01-23T09:28:08.365Z,0.58
2023-01-23T09:30:11.898Z,0.51
2023-01-23T09:32:13.792Z,0.53
2023-01-23T09:34:17.390Z,0.51
2023-01-23T09:36:20.588Z,0.50
2023-01-23T09:38:30.317Z,0.50
2023-01-23T09:40:44.036Z,0.49
2023-01-23T09:42:47.231Z,0.49
2023-01-23T09:44:54.776Z,0.48
2023-01-23T09:47:10.511Z,0.47
2023-01-23T09:49:17.532Z,0.45
2023-01-23T09:51:45.798Z,0.46
2023-01-23T09:53:47.981Z,0.45
2023-01-23T09:55:58.240Z,0.48
2023-01-23T09:58:04.351Z,0.50
2023-01-23T10:00:27.809Z,0.53
2023-01-23T10:02:31.028Z,0.57
2023-01-23T10:04:34.076Z,0.55
2023-01-23T10:06:48.517Z,0.54
2023-01-23T10:09:29.780Z,0.53
2023-01-23T10:12:08.874Z,0.54
2023-01-23T10:14:52.200Z,0.56
2023-01-23T10:17:15.102Z,0.60
2023-01-23T10:19:17.034Z,0.58
2023-01-23T10:21:32.205Z,0.56
2023-01-23T10:24:23.728Z,0.51
2023-01-23T10:26:32.300Z,0.57
2023-01-23T10:28:39.480Z,0.59
2023-01-23T10:30:42.557Z,0.58
2023-01-23T10:32:56.237Z,0.46
2023-01-23T10:35:12.790Z,0.55
2023-01-23T10:37:21.987Z,0.54
2023-01-23T10:39:31.783Z,0.59
2023-01-23T10:41:37.691Z,0.60
2023-01-23T10:43:43.468Z,0.69
2023-01-23T10:45:47.494Z,0.80
2023-01-23T10:47:54.548Z,0.87
2023-01-23T10:49:57.229Z,0.88
2023-01-23T10:52:00.178Z,0.88
2023-01-23T10:54:31.903Z,0.88
2023-01-23T10:56:37.987Z,0.96
2023-01-23T10:58:41.404Z,0.98
2023-01-23T11:00:47.302Z,0.99
2023-01-23T11:02:49.235Z,1.00
2023-01-23T11:04:52.676Z,0.96
2023-01-23T11:07:14.863Z,0.97
2023-01-23T11:09:21.362Z,0.98
2023-01-23T11:11:29.779Z,0.99
2023-01-23T11:13:31.824Z,0.99
2023-01-23T11:15:41.060Z,1.02
2023-01-23T11:17:44.263Z,1.02
2023-01-23T11:19:49.063Z,1.03
2023-01-23T11:21:53.203Z,1.03
2023-01-23T11:24:18.818Z,1.03
2023-01-23T11:26:34.634Z,1.05
2023-01-23T11:28:57.816Z,1.05
2023-01-23T11:31:16.036Z,1.09
2023-01-23T11:33:27.225Z,1.14
2023-01-23T11:36:07.107Z,1.10
2023-01-23T11:38:27.278Z,1.15
2023-01-23T11:40:33.113Z,1.23
2023-01-23T11:42:40.396Z,1.17
2023-01-23T11:44:46.333Z,1.17
2023-01-23T11:47:16.150Z,1.09
2023-01-23T11:49:29.216Z,0.96
2023-01-23T11:52:02.827Z,0.87
2023-01-23T11:54:31.599Z,0.81
2023-01-23T11:56:44.136Z,0.78
2023-01-23T11:59:14.739Z,0.83
2023-01-23T12:01:52.127Z,0.84
2023-01-23T12:04:20.808Z,0.84
2023-01-23T12:06:41.511Z,0.81
2023-01-23T12:08:56.551Z,0.79
2023-01-23T12:11:16.665Z,0.80
2023-01-23T12:13:48.334Z,0.83
2023-01-23T12:16:02.182Z,0.83
2023-01-23T12:18:22.912Z,0.78
2023-01-23T12:20:48.334Z,0.84
2023-01-23T12:23:18.696Z,0.88
2023-01-23T12:25:44.093Z,0.89
2023-01-23T12:27:48.706Z,0.88
2023-01-23T12:30:29.153Z,0.89
2023-01-23T12:33:19.210Z,0.86
2023-01-23T12:35:43.111Z,0.89
2023-01-23T12:38:11.797Z,0.85
2023-01-23T12:40:32.391Z,0.84
2023-01-23T12:42:49.409Z,0.85
2023-01-23T12:45:12.196Z,0.81
2023-01-23T12:47:20.277Z,0.76
2023-01-23T12:49:30.855Z,0.79
2023-01-23T12:51:39.758Z,0.77
2023-01-23T12:53:45.580Z,0.76
2023-01-23T12:56:10.968Z,0.80
2023-01-23T12:58:16.870Z,0.78
2023-01-23T13:00:43.216Z,0.80
2023-01-23T13:03:03.614Z,0.81
2023-01-23T13:05:55.169Z,0.80
2023-01-23T13:08:20.105Z,0.81
2023-01-23T13:11:11.785Z,0.78
2023-01-23T13:13:14.246Z,0.83
2023-01-23T13:15:38.848Z,0.86
2023-01-23T13:17:49.872Z,0.83
2023-01-23T13:20:10.219Z,0.82
2023-01-23T13:22:27.703Z,0.84
2023-01-23T13:24:59.928Z,0.88
2023-01-23T13:27:35.752Z,0.87
2023-01-23T13:29:51.003Z,0.86
2023-01-23T13:32:21.534Z,0.87
2023-01-23T13:34:23.533Z,0.86
2023-01-23T13:36:31.109Z,0.83
2023-01-23T13:38:39.712Z,0.86
2023-01-23T13:41:02.690Z,0.86
2023-01-23T13:43:44.460Z,0.86
2023-01-23T13:45:48.056Z,0.84
2023-01-23T14:20:46.528Z,0.82
2023-01-23T14:22:54.098Z,0.83
2023-01-23T14:24:56.891Z,0.82
2023-01-23T14:27:09.440Z,0.80
2023-01-23T14:29:24.313Z,0.81
2023-01-23T14:31:32.809Z,0.80
2023-01-23T14:33:45.415Z,0.81
2023-01-23T14:35:48.222Z,0.79
2023-01-23T14:37:52.698Z,0.81
2023-01-23T14:40:11.701Z,0.79
2023-01-23T14:42:35.579Z,0.52
2023-01-23T14:44:44.034Z,0.44
2023-01-23T14:46:46.993Z,0.39
2023-01-23T14:48:55.386Z,0.36
2023-01-23T14:51:25.111Z,0.53
2023-01-23T14:53:28.167Z,0.69
2023-01-23T14:55:32.024Z,0.77
2023-01-23T14:57:36.499Z,0.81
2023-01-23T14:59:41.627Z,0.91
2023-01-23T15:01:43.660Z,0.95
2023-01-23T15:03:57.588Z,1.00
2023-01-23T15:06:03.683Z,1.00
2023-01-23T15:08:30.886Z,1.03
2023-01-23T15:10:43.878Z,1.05
2023-01-23T15:12:56.767Z,1.02
2023-01-23T15:15:00.480Z,1.04
2023-01-23T15:17:05.549Z,1.06
2023-01-23T15:19:24.602Z,1.09
2023-01-23T15:21:33.640Z,1.08
2023-01-23T15:23:40.746Z,1.08
2023-01-23T15:25:46.343Z,1.03
2023-01-23T15:27:52.883Z,1.04
2023-01-23T15:30:33.377Z,1.10
2023-01-23T15:32:41.119Z,1.11
2023-01-23T15:34:54.401Z,1.08
2023-01-23T15:37:12.694Z,1.10
2023-01-23T15:39:23.900Z,1.12
2023-01-23T15:41:48.041Z,1.16
2023-01-23T15:43:51.062Z,1.11
2023-01-23T15:45:54.209Z,1.11
2023-01-23T15:47:56.160Z,1.12
2023-01-23T15:50:03.319Z,1.12
2023-01-23T15:52:25.660Z,1.10
2023-01-23T15:54:37.841Z,1.08
2023-01-23T15:56:48.688Z,1.00
2023-01-23T15:59:02.681Z,0.85
2023-01-23T16:01:06.089Z,0.81
2023-01-23T16:03:09.166Z,0.81
2023-01-23T16:05:12.284Z,0.78
2023-01-23T16:07:27.213Z,0.80
2023-01-23T16:09:34.278Z,0.78
2023-01-23T16:11:42.320Z,0.77
2023-01-23T16:13:44.953Z,0.79
2023-01-23T16:15:58.175Z,0.78
2023-01-23T16:18:04.789Z,0.76
2023-01-23T16:20:23.951Z,0.74
2023-01-23T16:22:29.997Z,0.74
2023-01-23T16:24:39.820Z,0.71
2023-01-23T16:26:42.504Z,0.71
2023-01-23T16:28:44.613Z,0.73
2023-01-23T16:30:55.738Z,0.72
2023-01-23T16:32:57.987Z,0.68
2023-01-23T16:35:02.207Z,0.69
2023-01-23T16:37:04.431Z,0.68
2023-01-23T16:39:07.271Z,0.67
2023-01-23T16:41:11.652Z,0.68
2023-01-23T16:43:14.755Z,0.70
2023-01-23T16:45:32.806Z,0.68
2023-01-23T16:47:34.956Z,0.69
2023-01-23T16:49:52.195Z,0.67
2023-01-23T16:52:00.812Z,0.67
2023-01-23T16:54:14.261Z,0.67
2023-01-23T16:56:53.843Z,0.72
2023-01-23T16:58:59.306Z,0.76
2023-01-23T17:01:08.848Z,0.80
2023-01-23T17:03:24.375Z,0.86
2023-01-23T17:05:26.399Z,0.90
2023-01-23T17:07:30.338Z,0.98
2023-01-23T17:09:32.622Z,0.96
2023-01-23T17:11:40.396Z,0.95
2023-01-23T17:13:44.787Z,0.96
2023-01-23T17:15:54.177Z,0.96
2023-01-23T17:18:00.710Z,0.96
2023-01-23T17:20:05.962Z,0.97
2023-01-23T17:22:24.217Z,1.01
2023-01-23T17:24:26.768Z,1.03
2023-01-23T17:26:29.123Z,1.07
2023-01-23T17:28:31.921Z,1.10
2023-01-23T17:30:36.516Z,1.11
2023-01-23T17:32:39.479Z,1.07
2023-01-23T17:34:49.832Z,1.04
2023-01-23T17:36:54.561Z,1.05
2023-01-23T17:39:00.950Z,1.03
2023-01-23T17:41:06.688Z,0.97
2023-01-23T17:43:12.070Z,0.90
2023-01-23T17:45:17.082Z,0.79
2023-01-23T17:47:19.937Z,0.78
2023-01-23T17:49:29.871Z,0.75
2023-01-23T17:51:33.123Z,0.72
2023-01-23T17:53:36.286Z,0.69
2023-01-23T17:55:41.452Z,0.68
2023-01-23T17:57:51.099Z,0.67
2023-01-23T17:59:55.641Z,0.66
2023-01-23T18:02:00.989Z,0.66
2023-01-23T18:04:16.467Z,0.63
2023-01-23T18:06:19.964Z,0.65
2023-01-23T18:08:23.653Z,0.65
2023-01-23T18:10:29.600Z,0.63
2023-01-23T18:12:52.194Z,0.63
2023-01-23T18:15:29.510Z,0.63
2023-01-23T18:18:17.295Z,0.63
2023-01-23T18:20:23.391Z,0.63
2023-01-23T18:22:27.176Z,0.62
2023-01-23T18:24:33.303Z,0.63
2023-01-23T18:26:54.763Z,0.63
2023-01-23T18:29:15.523Z,0.63
2023-01-23T18:31:37.073Z,0.61
2023-01-23T18:33:56.626Z,0.64
2023-01-23T18:36:34.102Z,0.65
2023-01-23T18:38:59.481Z,0.71
2023-01-23T18:41:25.000Z,0.67
2023-01-23T18:43:40.668Z,0.69
2023-01-23T18:46:01.980Z,0.69
2023-01-23T18:48:23.956Z,0.71
2023-01-23T18:50:28.121Z,0.72
2023-01-23T18:52:40.718Z,0.74
2023-01-23T18:55:03.736Z,0.75
2023-01-23T18:57:32.877Z,0.73
2023-01-23T19:00:09.679Z,0.75
2023-01-23T19:02:23.191Z,0.74
2023-01-23T19:04:54.350Z,0.75
2023-01-23T19:06:59.619Z,0.72
2023-01-23T19:09:02.749Z,0.73
2023-01-23T19:11:38.294Z,0.74
2023-01-23T19:14:16.645Z,0.76
2023-01-23T19:16:33.799Z,0.76
2023-01-23T19:18:45.600Z,0.79
2023-01-23T19:21:27.481Z,0.78
2023-01-23T19:23:46.959Z,0.76
2023-01-23T19:25:51.212Z,0.78
2023-01-23T19:27:56.652Z,0.80
2023-01-23T19:30:01.320Z,0.76
2023-01-23T19:32:05.750Z,0.75
2023-01-23T19:34:11.784Z,0.75
2023-01-23T19:36:15.046Z,0.77
2023-01-23T19:38:18.288Z,0.75
2023-01-23T19:40:21.292Z,0.76
2023-01-23T19:42:23.962Z,0.76
2023-01-23T19:44:29.110Z,0.74
2023-01-23T19:46:34.422Z,0.71
2023-01-23T19:48:37.275Z,0.73
2023-01-23T19:50:41.492Z,0.71
2023-01-23T19:52:46.923Z,0.72
2023-01-23T19:54:51.036Z,0.68
2023-01-23T19:56:56.193Z,0.65
2023-01-23T19:59:00.603Z,0.66
2023-01-23T20:01:04.379Z,0.65
2023-01-23T20:03:06.651Z,0.63
2023-01-23T20:05:10.046Z,0.66
2023-01-23T20:07:12.744Z,0.62
2023-01-23T20:09:16.228Z,0.66
2023-01-23T20:11:18.913Z,0.65
2023-01-23T20:13:21.534Z,0.67
2023-01-23T20:15:26.669Z,0.67
2023-01-23T20:17:29.807Z,0.67
2023-01-23T20:19:34.009Z,0.66
2023-01-23T20:21:37.951Z,0.66
2023-01-23T20:23:41.206Z,0.68
2023-01-23T20:26:00.152Z,0.71
2023-01-23T20:28:03.802Z,0.69
2023-01-23T20:30:11.803Z,0.67
2023-01-23T20:32:14.648Z,0.67
2023-01-23T20:34:18.809Z,0.63
2023-01-23T20:36:21.747Z,0.63
2023-01-23T20:38:25.409Z,0.61
2023-01-23T20:40:34.124Z,0.59
2023-01-23T20:42:38.603Z,0.59
2023-01-23T20:44:42.111Z,0.57
2023-01-23T20:46:52.067Z,0.56
2023-01-23T20:49:02.108Z,0.59
2023-01-23T20:51:12.920Z,0.59
2023-01-23T20:53:32.341Z,0.61
2023-01-23T20:55:43.748Z,0.56
2023-01-23T20:58:07.625Z,0.56
2023-01-23T21:00:13.696Z,0.56
2023-01-23T21:02:23.900Z,0.56
2023-01-23T21:04:31.849Z,0.57
2023-01-23T21:06:35.047Z,0.56
2023-01-23T21:08:42.048Z,0.57
2023-01-23T21:10:46.407Z,0.56
2023-01-23T21:12:50.596Z,0.54
2023-01-23T21:15:06.260Z,0.54
2023-01-23T21:17:15.721Z,0.55
2023-01-23T21:19:20.342Z,0.54
2023-01-23T21:21:31.999Z,0.53
2023-01-23T21:23:37.159Z,0.52
2023-01-23T21:25:39.352Z,0.51
2023-01-23T21:27:42.628Z,0.56
2023-01-23T21:29:44.709Z,0.52
2023-01-23T21:31:51.769Z,0.51
2023-01-23T21:34:15.440Z,0.52
2023-01-23T21:38:43.345Z,0.54
2023-01-23T21:40:45.498Z,0.52
2023-01-23T21:42:50.695Z,0.55
2023-01-23T21:44:57.312Z,0.53
2023-01-23T21:46:59.613Z,0.52
2023-01-23T21:49:06.798Z,0.52
2023-01-23T21:51:18.563Z,0.51
2023-01-23T21:53:26.189Z,0.52
2023-01-23T21:55:32.426Z,0.52
2023-01-23T21:57:34.330Z,0.51
2023-01-23T21:59:46.812Z,0.51
2023-01-23T22:02:01.775Z,0.53
2023-01-23T22:04:06.577Z,0.50
2023-01-23T22:06:13.657Z,0.49
2023-01-23T22:08:28.835Z,0.51
2023-01-23T22:10:43.780Z,0.51
2023-01-23T22:12:46.807Z,0.49
2023-01-23T22:14:52.785Z,0.51
2023-01-23T22:16:59.947Z,0.49
2023-01-23T22:19:03.710Z,0.50
2023-01-23T22:21:08.117Z,0.52
2023-01-23T22:23:13.255Z,0.51
2023-01-23T22:25:24.109Z,0.52
2023-01-23T22:27:26.132Z,0.53
2023-01-23T22:29:34.106Z,0.51
2023-01-23T22:31:39.054Z,0.52
2023-01-23T22:33:47.706Z,0.51
2023-01-23T22:35:50.044Z,0.50
2023-01-23T22:37:57.850Z,0.50
2023-01-23T22:40:27.051Z,0.54
2023-01-23T22:42:33.054Z,0.53
2023-01-23T22:44:37.838Z,0.54
2023-01-23T22:46:39.951Z,0.55
2023-01-23T22:48:48.044Z,0.54
2023-01-23T22:50:52.054Z,0.55
2023-01-23T22:53:01.996Z,0.56
2023-01-23T22:55:16.657Z,0.55
2023-01-23T22:57:21.903Z,0.56
2023-01-23T22:59:24.857Z,0.57
2023-01-23T23:01:30.559Z,0.57
2023-01-23T23:03:42.967Z,0.54
2023-01-23T23:05:45.133Z,0.52
2023-01-23T23:07:47.072Z,0.54
2023-01-23T23:09:49.084Z,0.54
2023-01-23T23:11:55.042Z,0.55
2023-01-23T23:13:58.115Z,0.55
2023-01-23T23:16:11.575Z,0.53
2023-01-23T23:18:13.593Z,0.55
2023-01-23T23:20:15.809Z,0.53
2023-01-23T23:22:19.824Z,0.55
2023-01-23T23:24:23.042Z,0.54
2023-01-23T23:26:31.832Z,0.54
2023-01-23T23:28:35.257Z,0.55
2023-01-23T23:30:37.192Z,0.56
2023-01-23T23:32:40.260Z,0.55
2023-01-23T23:34:48.335Z,0.55
2023-01-23T23:36:50.286Z,0.54
2023-01-23T23:38:52.206Z,0.56
2023-01-23T23:41:12.383Z,0.56
2023-01-23T23:43:19.903Z,0.54
2023-01-23T23:45:32.157Z,0.54
2023-01-23T23:47:34.090Z,0.56
2023-01-23T23:49:43.053Z,0.57
2023-01-23T23:52:03.156Z,0.57
2023-01-23T23:54:13.852Z,0.56
2023-01-23T23:56:26.509Z,0.57
2023-01-23T23:58:40.795Z,0.58
